Time;durP1;ratioP1;P1;durP2;ratioP2;P2;SDS_P1;SDS_P2;PMS_P1;PMS_P2;Temp;Humidity;BMP_temperature;BMP_pressure;BME280_temperature;BME280_humidity;BME280_pressure;Samples;Min_cycle;Max_cycle;Signal;HPM_P1;HPM_P2
2022/05/03 00:03:51;;;;;;;0.00;0.00;;;;;;;7.45;63.08;101875.44;10544550;28;20048;-81
2022/05/03 00:09:06;;;;;;;0.00;0.00;;;;;;;7.49;62.51;101878.19;10559577;28;20073;-81
2022/05/03 00:14:18;;;;;;;0.00;0.00;;;;;;;7.33;63.26;101882.47;10548458;28;20051;-80
2022/05/03 00:19:20;;;;;;;0.00;0.00;;;;;;;7.17;63.65;101878.19;10561890;28;20028;-81
2022/05/03 00:24:22;;;;;;;0.00;0.00;;;;;;;7.09;64.16;101879.44;10540791;28;20048;-82
2022/05/03 00:29:25;;;;;;;0.00;0.00;;;;;;;7.21;63.94;101874.13;10535922;28;20052;-80
2022/05/03 00:34:31;;;;;;;0.00;0.00;;;;;;;7.01;64.04;101867.88;10540927;28;20074;-80
2022/05/03 00:39:32;;;;;;;0.10;0.10;;;;;;;6.88;64.79;101867.19;10538887;28;20052;-80
2022/05/03 00:44:55;;;;;;;0.00;0.00;;;;;;;6.85;65.34;101867.00;10545972;28;20418;-80
2022/05/03 00:50:08;;;;;;;0.00;0.00;;;;;;;6.86;65.23;101862.75;10545755;28;20048;-80
2022/05/03 00:55:31;;;;;;;0.00;0.00;;;;;;;6.91;64.85;101869.91;10544479;28;20054;-81
2022/05/03 01:00:34;;;;;;;0.00;0.00;;;;;;;6.86;65.52;101867.88;10546130;28;20074;-80
2022/05/03 01:05:45;;;;;;;0.00;0.00;;;;;;;7.08;64.57;101862.28;10544428;28;20119;-80
2022/05/03 01:11:09;;;;;;;0.00;0.00;;;;;;;6.82;65.16;101862.59;10544698;28;20047;-81
2022/05/03 01:16:38;;;;;;;0.00;0.00;;;;;;;6.59;65.82;101874.06;10531409;28;20131;-81
2022/05/03 01:22:12;;;;;;;0.00;0.00;;;;;;;6.78;65.55;101854.66;10544903;28;20486;-80
2022/05/03 01:27:49;;;;;;;0.00;0.00;;;;;;;6.74;65.96;101861.28;10523693;28;20113;-80
2022/05/03 01:33:02;;;;;;;0.00;0.00;;;;;;;6.65;65.21;101871.00;10445352;28;20087;-80
2022/05/03 01:38:22;;;;;;;0.10;0.10;;;;;;;6.44;65.40;101876.66;10544516;28;20039;-81
2022/05/03 01:43:47;;;;;;;0.00;0.00;;;;;;;6.05;68.02;101867.50;10542136;28;20048;-80
2022/05/03 01:54:57;;;;;;;0.00;0.00;;;;;;;5.71;69.92;101867.19;10542665;28;20089;-80
2022/05/03 02:00:06;;;;;;;0.00;0.00;;;;;;;5.72;69.76;101868.06;10543443;28;20044;-80
2022/05/03 02:05:31;;;;;;;0.00;0.00;;;;;;;5.98;68.96;101867.09;10543779;28;20040;-80
2022/05/03 02:11:01;;;;;;;0.00;0.00;;;;;;;5.75;69.72;101863.13;10543230;28;20441;-80
2022/05/03 02:16:09;;;;;;;0.00;0.00;;;;;;;5.75;70.20;101862.25;10543822;28;20345;-81
2022/05/03 02:21:33;;;;;;;0.00;0.00;;;;;;;5.82;70.65;101859.28;10524341;28;20055;-80
2022/05/03 02:26:52;;;;;;;0.00;0.00;;;;;;;5.74;71.00;101865.59;10543772;28;20102;-80
2022/05/03 02:32:08;;;;;;;0.00;0.00;;;;;;;5.53;71.33;101871.19;10558198;28;20051;-80
2022/05/03 02:37:21;;;;;;;0.00;0.00;;;;;;;5.42;69.88;101867.94;10556989;28;20584;-80
2022/05/03 02:42:25;;;;;;;0.00;0.00;;;;;;;5.72;69.31;101873.19;10541499;28;20063;-80
2022/05/03 02:47:51;;;;;;;0.00;0.00;;;;;;;5.83;70.19;101871.28;10542238;28;20048;-80
2022/05/03 02:53:02;;;;;;;0.00;0.00;;;;;;;5.65;70.04;101866.81;10523327;28;20068;-80
2022/05/03 02:58:23;;;;;;;0.00;0.00;;;;;;;4.92;71.92;101863.94;10540906;28;20105;-80
2022/05/03 03:03:53;;;;;;;0.13;0.13;;;;;;;4.84;72.69;101855.78;10541583;28;20047;-81
2022/05/03 03:08:57;;;;;;;0.00;0.00;;;;;;;4.67;74.95;101864.91;10487317;28;20419;-81
2022/05/03 03:14:05;;;;;;;0.00;0.00;;;;;;;4.83;73.70;101855.69;10480446;28;20048;-80
2022/05/03 03:19:40;;;;;;;0.00;0.00;;;;;;;4.62;73.47;101868.84;10500690;28;20048;-79
2022/05/03 03:24:42;;;;;;;0.00;0.00;;;;;;;4.89;72.78;101863.75;10540055;28;20067;-80
2022/05/03 03:29:46;;;;;;;0.00;0.00;;;;;;;4.61;73.03;101856.84;10540330;28;20040;-81
2022/05/03 03:34:50;;;;;;;0.00;0.00;;;;;;;4.29;74.54;101863.25;10527832;28;20076;-80
2022/05/03 03:39:52;;;;;;;0.00;0.00;;;;;;;4.23;75.50;101858.66;10539626;28;20101;-80
2022/05/03 03:45:07;;;;;;;0.00;0.00;;;;;;;3.55;77.24;101865.88;10538734;28;20071;-80
2022/05/03 03:50:09;;;;;;;0.00;0.00;;;;;;;4.34;75.44;101874.66;10540263;28;20127;-79
2022/05/03 03:55:13;;;;;;;0.00;0.00;;;;;;;4.12;76.12;101874.88;10538751;28;20047;-79
2022/05/03 04:00:16;;;;;;;0.00;0.00;;;;;;;4.44;74.03;101866.81;10524345;28;20519;-79
2022/05/03 04:05:22;;;;;;;0.00;0.00;;;;;;;4.33;74.03;101859.25;10537731;28;20147;-81
2022/05/03 04:10:24;;;;;;;0.00;0.00;;;;;;;3.60;77.67;101864.53;10539700;28;20514;-80
2022/05/03 04:15:26;;;;;;;0.00;0.00;;;;;;;4.24;74.91;101856.97;10527478;28;20048;-80
2022/05/03 04:20:28;;;;;;;0.00;0.00;;;;;;;4.31;74.04;101861.69;10554833;28;20055;-80
2022/05/03 04:25:29;;;;;;;0.00;0.00;;;;;;;4.22;74.96;101861.97;10533220;28;20093;-81
2022/05/03 04:30:31;;;;;;;0.00;0.00;;;;;;;3.85;78.08;101876.41;10514675;28;20089;-81
2022/05/03 04:35:33;;;;;;;0.00;0.00;;;;;;;3.38;78.00;101885.97;10532823;28;20044;-81
2022/05/03 04:40:34;;;;;;;0.35;0.25;;;;;;;3.71;77.01;101885.69;10537730;28;20044;-81
2022/05/03 04:45:36;;;;;;;0.00;0.00;;;;;;;3.17;79.29;101896.38;10534521;28;20112;-81
2022/05/03 04:50:37;;;;;;;0.10;0.10;;;;;;;3.76;78.61;101895.41;10518922;28;20071;-83
2022/05/03 04:55:40;;;;;;;0.00;0.00;;;;;;;4.49;77.32;101891.78;10537144;28;20089;-81
2022/05/03 05:00:44;;;;;;;0.20;0.20;;;;;;;4.42;77.75;101901.59;10537256;28;20044;-81
2022/05/03 05:05:46;;;;;;;0.20;0.20;;;;;;;4.68;77.94;101904.09;10519150;28;20048;-82
2022/05/03 05:10:47;;;;;;;0.03;0.03;;;;;;;4.87;77.54;101912.16;10489159;28;20421;-82
2022/05/03 05:15:49;;;;;;;0.05;0.05;;;;;;;5.15;77.17;101907.97;10540819;28;20044;-82
2022/05/03 05:20:51;;;;;;;0.20;0.20;;;;;;;5.51;76.98;101911.94;10525901;28;20098;-81
2022/05/03 05:25:58;;;;;;;0.20;0.20;;;;;;;5.87;75.60;101919.25;10544546;28;20839;-81
2022/05/03 05:31:00;;;;;;;0.00;0.00;;;;;;;6.22;75.68;101917.13;10543799;28;20237;-82
2022/05/03 05:36:01;;;;;;;0.00;0.00;;;;;;;6.59;74.45;101919.28;10545405;28;20115;-81
2022/05/03 05:41:14;;;;;;;0.00;0.00;;;;;;;6.84;73.46;101906.22;10554175;28;20101;-80
2022/05/03 05:46:15;;;;;;;4.18;1.42;;;;;;;6.94;72.56;101905.97;10558559;28;20380;-81
2022/05/03 05:53:31;;;;;;;0.00;0.00;;;;;;;7.49;71.94;101904.69;10557694;28;20052;-81
2022/05/03 05:58:43;;;;;;;0.20;0.20;;;;;;;7.64;69.93;101909.78;10514025;22;20416;-80
2022/05/03 06:04:16;;;;;;;0.80;0.33;;;;;;;8.24;68.90;101906.94;10442770;22;20052;-83
2022/05/03 06:10:36;;;;;;;0.47;0.47;;;;;;;8.36;66.78;101914.38;10480989;22;20068;-83
2022/05/03 06:15:48;;;;;;;0.63;0.50;;;;;;;8.70;65.14;101911.88;10464314;22;20350;-83
2022/05/03 06:21:39;;;;;;;0.00;0.00;;;;;;;9.37;64.67;101912.47;10473487;23;20110;-80
2022/05/03 06:27:27;;;;;;;1.77;0.77;;;;;;;9.49;64.23;101913.03;10409992;28;20060;-82
2022/05/03 06:33:52;;;;;;;1.50;1.13;;;;;;;9.62;62.90;101918.78;10480609;22;20064;-83
2022/05/03 06:39:23;;;;;;;0.25;0.25;;;;;;;9.95;61.88;101918.53;10456682;22;20053;-82
2022/05/03 06:56:52;;;;;;;0.43;0.43;;;;;;;10.96;58.49;101921.13;10469848;22;20052;-81
2022/05/03 07:02:36;;;;;;;0.45;0.45;;;;;;;11.97;56.65;101923.28;10454292;22;20400;-81
2022/05/03 07:08:04;;;;;;;1.52;0.57;;;;;;;11.82;55.48;101922.69;10437831;28;20115;-82
2022/05/03 07:13:51;;;;;;;0.00;0.00;;;;;;;12.47;54.89;101910.41;10349879;28;20069;-83
2022/05/03 07:27:03;;;;;;;0.00;0.00;;;;;;;13.08;44.84;101920.13;10355182;28;20054;-80
2022/05/03 07:33:32;;;;;;;0.08;0.08;;;;;;;12.70;43.09;101920.66;10372783;28;20436;-82
2022/05/03 07:39:50;;;;;;;0.10;0.10;;;;;;;13.29;45.30;101927.69;10323676;28;20506;-81
2022/05/03 07:58:46;;;;;;;0.00;0.00;;;;;;;15.92;41.43;101926.72;10495719;22;20052;31
2022/05/03 08:04:48;;;;;;;0.00;0.00;;;;;;;16.84;43.14;101918.81;10482379;22;20071;-81
2022/05/03 08:16:11;;;;;;;0.00;0.00;;;;;;;17.98;38.81;101930.00;10573462;28;20053;-81
2022/05/03 08:46:59;;;;;;;0.00;0.00;;;;;;;18.77;38.05;101929.91;10514611;28;20048;-81
2022/05/03 08:53:21;;;;;;;1.30;1.02;;;;;;;17.10;40.70;101929.66;10457641;23;20095;-82
2022/05/03 08:59:04;;;;;;;0.00;0.00;;;;;;;17.87;39.76;101928.97;10450784;28;20073;-83
2022/05/03 09:05:40;;;;;;;0.00;0.00;;;;;;;18.07;40.86;101931.84;10550239;22;20048;-84
2022/05/03 09:12:01;;;;;;;0.00;0.00;;;;;;;18.28;38.09;101928.56;10551323;22;20181;-80
2022/05/03 09:17:49;;;;;;;0.55;0.43;;;;;;;18.04;39.57;101929.19;10504952;28;20048;-81
2022/05/03 09:35:06;;;;;;;5.30;0.63;;;;;;;17.50;42.49;101925.88;7066014;22;20059;-81
2022/05/03 09:52:21;;;;;;;0.70;0.50;;;;;;;18.99;44.43;101910.94;10362546;22;20079;-86
2022/05/03 09:57:24;;;;;;;1.58;1.05;;;;;;;17.06;44.01;101919.16;10386308;28;20306;-84
2022/05/03 10:02:28;;;;;;;0.00;0.00;;;;;;;19.62;38.95;101907.81;10349853;28;20057;-82
2022/05/03 10:07:30;;;;;;;0.75;0.35;;;;;;;20.88;38.67;101901.09;10388217;28;20053;-83
2022/05/03 10:12:34;;;;;;;0.00;0.00;;;;;;;20.29;38.67;101903.66;10369816;28;20075;-83
2022/05/03 10:23:41;;;;;;;0.00;0.00;;;;;;;17.46;42.00;101905.88;10390433;28;20098;-84
2022/05/03 10:28:58;;;;;;;0.15;0.10;;;;;;;18.05;42.79;101903.16;10375128;28;20452;-85
2022/05/03 10:34:02;;;;;;;0.10;0.10;;;;;;;16.83;44.21;101897.97;10358466;28;20270;-83
2022/05/03 10:39:17;;;;;;;0.90;0.43;;;;;;;16.52;46.16;101897.47;10334978;28;20321;-84
2022/05/03 10:44:40;;;;;;;0.00;0.00;;;;;;;16.65;44.07;101896.81;10320041;28;20444;-83
2022/05/03 10:50:17;;;;;;;0.32;0.28;;;;;;;17.82;41.48;101889.81;10333556;28;20532;-82
2022/05/03 10:55:18;;;;;;;0.25;0.25;;;;;;;17.50;44.71;101886.81;10321892;28;20107;-80
2022/05/03 11:01:05;;;;;;;3.30;0.40;;;;;;;16.85;47.80;101883.25;10353721;28;20049;-81
2022/05/03 11:06:19;;;;;;;1.02;0.75;;;;;;;16.44;46.48;101879.13;10319690;28;20909;-83
2022/05/03 11:11:40;;;;;;;0.00;0.00;;;;;;;17.27;47.03;101879.56;10335216;28;20155;-83
2022/05/03 11:16:42;;;;;;;0.85;0.45;;;;;;;18.54;45.98;101852.28;10358026;28;20095;-84
2022/05/03 11:21:50;;;;;;;3.83;1.73;;;;;;;17.28;45.37;101860.47;10370895;28;20342;-82
2022/05/03 11:26:53;;;;;;;0.00;0.00;;;;;;;17.94;45.64;101863.00;10371960;28;20497;-84
2022/05/03 11:31:58;;;;;;;0.05;0.05;;;;;;;19.46;41.29;101852.00;10368487;28;20357;-82
2022/05/03 11:37:01;;;;;;;0.00;0.00;;;;;;;20.13;39.72;101852.22;10361469;28;20517;-82
2022/05/03 11:42:09;;;;;;;0.20;0.20;;;;;;;18.38;41.10;101844.31;10343123;28;20057;-83
2022/05/03 11:47:14;;;;;;;0.00;0.00;;;;;;;17.90;45.80;101845.59;10352763;28;20054;-84
2022/05/03 11:57:51;;;;;;;0.00;0.00;;;;;;;17.11;46.35;101842.88;10429815;28;20145;-87
2022/05/03 12:02:53;;;;;;;0.00;0.00;;;;;;;16.97;47.14;101839.22;10432799;28;20052;-85
2022/05/03 12:07:57;;;;;;;0.55;0.38;;;;;;;17.44;46.85;101841.59;10452862;28;20136;-87
2022/05/03 12:13:06;;;;;;;0.00;0.00;;;;;;;18.74;44.43;101825.44;10442503;28;20738;-84
2022/05/03 12:18:07;;;;;;;0.23;0.23;;;;;;;19.66;42.97;101820.69;10448447;28;20639;-86
2022/05/03 12:23:12;;;;;;;0.00;0.00;;;;;;;19.26;42.29;101820.53;10451945;28;20340;-83
2022/05/03 12:28:15;;;;;;;1.63;0.95;;;;;;;17.89;44.14;101813.41;10428715;28;20053;-84
2022/05/03 12:33:18;;;;;;;0.25;0.20;;;;;;;17.31;44.05;101812.75;10433792;28;20053;-87
2022/05/03 12:38:27;;;;;;;0.00;0.00;;;;;;;17.09;46.07;101818.56;10453660;28;20140;-87
2022/05/03 12:43:30;;;;;;;1.50;1.13;;;;;;;17.02;46.74;101810.66;10439746;28;20134;-84
2022/05/03 12:48:38;;;;;;;0.20;0.20;;;;;;;17.78;45.34;101799.41;10448897;28;20597;-87
2022/05/03 12:53:47;;;;;;;0.35;0.35;;;;;;;17.07;46.47;101799.47;10385495;28;20471;-83
2022/05/03 12:58:49;;;;;;;1.83;1.03;;;;;;;16.98;45.48;101804.53;10377821;28;20814;-85
2022/05/03 13:03:51;;;;;;;0.00;0.00;;;;;;;17.24;46.71;101794.47;10401540;28;20396;-85
2022/05/03 13:08:57;;;;;;;3.10;1.35;;;;;;;17.01;51.40;101790.69;10372981;28;20915;-85
2022/05/03 13:13:59;;;;;;;4.80;2.17;;;;;;;15.95;53.46;101785.56;10384258;28;20254;-82
2022/05/03 13:19:01;;;;;;;6.47;2.33;;;;;;;16.05;53.64;101795.25;10474871;22;20193;-79
2022/05/03 13:24:06;;;;;;;6.15;2.28;;;;;;;16.32;54.04;101784.44;10516342;28;20053;-79
2022/05/03 13:29:11;;;;;;;0.95;0.52;;;;;;;16.44;53.81;101778.56;10506002;28;20056;-80
2022/05/03 13:34:16;;;;;;;6.90;2.53;;;;;;;16.23;52.87;101783.41;10503266;28;20468;-79
2022/05/03 13:44:39;;;;;;;0.45;0.45;;;;;;;16.69;52.82;101784.16;10510520;28;20064;-81
2022/05/03 13:49:42;;;;;;;0.30;0.25;;;;;;;17.36;53.18;101778.13;10492802;28;20408;-79
2022/05/03 13:54:44;;;;;;;3.20;2.05;;;;;;;16.80;52.02;101781.69;10505565;28;20044;-79
2022/05/03 13:59:46;;;;;;;7.50;2.60;;;;;;;16.62;53.71;101779.69;10528999;28;20056;-79
2022/05/03 14:04:48;;;;;;;1.90;1.48;;;;;;;16.50;54.74;101780.38;10520968;28;20060;-80
2022/05/03 14:09:50;;;;;;;2.75;1.95;;;;;;;16.67;56.96;101783.25;10534707;28;20044;-79
2022/05/03 14:14:52;;;;;;;2.50;0.93;;;;;;;16.49;55.73;101781.25;10527437;28;20459;-79
2022/05/03 14:19:53;;;;;;;4.00;2.63;;;;;;;16.06;55.39;101783.16;10531606;28;20123;-79
2022/05/03 14:24:55;;;;;;;6.32;3.42;;;;;;;15.77;55.54;101781.72;10508398;28;20052;-80
2022/05/03 14:29:58;;;;;;;0.40;0.40;;;;;;;16.81;54.40;101781.72;10522171;28;20569;-80
2022/05/03 14:35:00;;;;;;;1.15;0.75;;;;;;;15.88;54.54;101781.09;10509819;28;20565;-80
2022/05/03 14:40:02;;;;;;;0.50;0.43;;;;;;;16.00;55.26;101777.00;10529471;28;20154;-80
2022/05/03 14:45:06;;;;;;;0.00;0.00;;;;;;;16.21;55.15;101779.91;10534801;28;20088;-80
2022/05/03 14:50:08;;;;;;;5.10;2.28;;;;;;;16.09;54.31;101773.66;10532980;28;20113;-80
2022/05/03 14:55:10;;;;;;;0.75;0.47;;;;;;;16.14;56.16;101774.63;10533138;28;20062;-80
2022/05/03 15:05:35;;;;;;;4.93;2.80;;;;;;;15.16;60.06;101779.66;10528757;28;20052;-80
2022/05/03 15:10:38;;;;;;;5.60;2.83;;;;;;;14.93;60.50;101788.72;10531838;28;20089;-79
2022/05/03 15:15:42;;;;;;;11.63;4.93;;;;;;;14.80;60.88;101783.22;10532329;28;20101;-79
2022/05/03 15:20:43;;;;;;;3.58;2.38;;;;;;;14.66;60.97;101784.63;10508734;28;20181;-79
2022/05/03 15:25:46;;;;;;;7.38;3.85;;;;;;;14.40;61.35;101783.16;10535232;28;20111;-79
2022/05/03 15:30:50;;;;;;;7.22;2.28;;;;;;;14.37;63.11;101784.78;10524398;28;20154;-80
2022/05/03 15:35:52;;;;;;;2.30;0.75;;;;;;;14.52;62.89;101792.94;10483467;28;20071;-80
2022/05/03 15:40:53;;;;;;;5.38;1.75;;;;;;;14.24;62.69;101787.09;10530769;28;20036;-80
2022/05/03 15:45:55;;;;;;;5.93;2.15;;;;;;;14.19;61.83;101792.97;10534366;28;20071;-80
2022/05/03 15:50:57;;;;;;;1.38;1.15;;;;;;;14.36;61.66;101790.81;10524866;28;20044;-79
2022/05/03 15:55:59;;;;;;;2.97;1.92;;;;;;;14.15;60.98;101792.03;10493650;28;20095;-79
2022/05/03 16:01:05;;;;;;;3.55;1.75;;;;;;;13.97;61.22;101797.63;10530690;28;20442;-80
2022/05/03 16:06:06;;;;;;;0.17;0.17;;;;;;;14.04;61.21;101788.28;10515543;28;20048;-79
2022/05/03 16:11:08;;;;;;;0.30;0.20;;;;;;;14.19;61.75;101780.88;10518011;28;20098;-79
2022/05/03 16:16:10;;;;;;;0.68;0.40;;;;;;;14.07;61.29;101788.38;10529607;28;20129;-79
2022/05/03 16:21:12;;;;;;;4.00;1.42;;;;;;;13.80;61.71;101790.28;10524936;28;20445;-79
2022/05/03 16:26:14;;;;;;;2.17;1.35;;;;;;;13.76;61.75;101788.44;10534371;28;20056;-80
2022/05/03 16:31:15;;;;;;;5.18;1.20;;;;;;;13.78;60.95;101778.97;10532482;28;20549;-80
2022/05/03 16:46:58;;;;;;;2.08;1.10;;;;;;;13.53;61.58;101780.03;10533936;28;20064;-81
2022/05/03 16:52:00;;;;;;;4.80;2.10;;;;;;;13.51;60.96;101786.91;10503089;28;20165;-79
2022/05/03 16:57:02;;;;;;;2.85;1.58;;;;;;;13.41;61.49;101790.91;10510831;28;20095;-79
2022/05/03 17:02:05;;;;;;;0.70;0.40;;;;;;;13.52;61.50;101788.63;10512445;28;20110;-79
2022/05/03 17:07:07;;;;;;;0.13;0.13;;;;;;;13.63;62.13;101787.22;10500840;28;20159;-79
2022/05/03 17:12:11;;;;;;;1.10;0.77;;;;;;;13.40;61.59;101788.28;10538820;28;20086;-80
2022/05/03 17:17:14;;;;;;;0.90;0.82;;;;;;;13.45;61.58;101781.53;10541009;28;20060;-80
2022/05/03 17:22:16;;;;;;;1.15;0.98;;;;;;;13.49;61.10;101789.44;10531200;28;20048;-79
2022/05/03 17:27:17;;;;;;;0.08;0.08;;;;;;;13.52;61.64;101791.22;10539069;28;20048;-79
2022/05/03 17:32:19;;;;;;;0.80;0.57;;;;;;;13.57;60.43;101787.06;10532809;28;20098;-80
2022/05/03 17:37:21;;;;;;;1.90;0.25;;;;;;;13.39;60.04;101789.13;10537454;28;20048;-79
2022/05/03 17:42:23;;;;;;;1.33;0.77;;;;;;;13.20;60.31;101796.34;10535655;28;20402;-80
2022/05/03 17:47:24;;;;;;;2.85;0.52;;;;;;;13.26;60.41;101796.50;10533714;28;20058;-79
2022/05/03 17:57:46;;;;;;;9.88;0.93;;;;;;;13.25;59.57;101805.09;10532116;28;20048;-79
2022/05/03 18:02:47;;;;;;;0.00;0.00;;;;;;;13.31;59.74;101805.28;10534977;28;20126;-80
2022/05/03 18:07:51;;;;;;;0.05;0.03;;;;;;;13.38;60.10;101802.84;10536942;28;20052;-80
2022/05/03 18:12:53;;;;;;;0.00;0.00;;;;;;;13.38;59.51;101796.03;10535912;28;20052;-79
2022/05/03 18:17:56;;;;;;;0.00;0.00;;;;;;;13.45;60.38;101802.22;10534643;28;20107;-79
2022/05/03 18:23:00;;;;;;;0.35;0.35;;;;;;;13.43;59.13;101801.34;10530923;28;20059;-80
2022/05/03 18:28:03;;;;;;;0.00;0.00;;;;;;;13.35;59.19;101807.97;10523994;28;20139;-79
2022/05/03 18:33:05;;;;;;;0.15;0.15;;;;;;;13.23;59.80;101806.75;10491523;28;20492;-80
2022/05/03 18:38:06;;;;;;;0.20;0.20;;;;;;;13.36;58.68;101807.13;10502310;28;20076;-79
2022/05/03 18:43:14;;;;;;;0.00;0.00;;;;;;;13.18;58.92;101821.28;10529544;28;20499;-79
2022/05/03 18:48:15;;;;;;;0.00;0.00;;;;;;;13.14;58.10;101820.31;10536225;28;20056;-78
2022/05/03 18:53:17;;;;;;;1.45;0.73;;;;;;;12.71;57.97;101821.56;10535926;28;20048;-79
2022/05/03 18:58:20;;;;;;;0.22;0.22;;;;;;;12.62;58.78;101814.38;10517825;28;20056;-79
2022/05/03 19:03:21;;;;;;;0.25;0.10;;;;;;;12.49;59.16;101818.31;10518367;28;20056;-79
2022/05/03 19:08:23;;;;;;;0.00;0.00;;;;;;;12.40;59.42;101822.28;10495958;28;20059;-79
2022/05/03 19:13:27;;;;;;;0.35;0.35;;;;;;;12.20;58.48;101827.66;10500759;28;20295;-79
2022/05/03 19:18:29;;;;;;;1.25;0.77;;;;;;;12.09;58.37;101831.59;10511791;28;20442;-79
2022/05/03 19:23:31;;;;;;;0.00;0.00;;;;;;;11.95;58.73;101842.25;10530058;28;20109;-79
2022/05/03 19:33:53;;;;;;;0.00;0.00;;;;;;;11.75;59.32;101855.34;10527674;28;20040;-79
2022/05/03 19:38:55;;;;;;;1.17;0.32;;;;;;;11.53;59.46;101864.03;10532181;28;20040;-80
2022/05/03 19:43:58;;;;;;;1.38;1.08;;;;;;;11.36;60.34;101859.91;10529253;28;20051;-79
2022/05/03 19:49:01;;;;;;;0.70;0.10;;;;;;;11.27;60.17;101858.75;10534007;28;20040;-79
2022/05/03 19:54:04;;;;;;;0.00;0.00;;;;;;;11.05;61.03;101863.88;10533875;28;20071;-79
2022/05/03 19:59:08;;;;;;;0.00;0.00;;;;;;;10.98;60.84;101867.03;10531852;28;20407;-80
2022/05/03 20:04:10;;;;;;;0.00;0.00;;;;;;;10.73;62.04;101866.03;10528712;28;20056;-79
2022/05/03 20:09:15;;;;;;;0.00;0.00;;;;;;;10.60;62.02;101867.25;10531739;28;20411;-79
2022/05/03 20:14:18;;;;;;;0.00;0.00;;;;;;;10.59;62.62;101870.66;10532567;28;20059;-79
2022/05/03 20:19:20;;;;;;;0.00;0.00;;;;;;;10.07;64.21;101888.19;10530297;28;20054;-82
2022/05/03 20:24:21;;;;;;;0.38;0.28;;;;;;;9.78;64.87;101885.22;10530796;28;20089;-83
2022/05/03 20:29:23;;;;;;;0.00;0.00;;;;;;;9.45;65.57;101892.28;10531496;28;20068;-83
2022/05/03 20:34:25;;;;;;;0.05;0.05;;;;;;;9.48;65.52;101895.88;10531892;28;20560;-82
2022/05/03 20:39:26;;;;;;;0.00;0.00;;;;;;;9.35;66.08;101893.50;10547749;28;20044;-82
2022/05/03 20:44:28;;;;;;;0.63;0.13;;;;;;;9.23;65.70;101906.69;10533451;28;20434;-82
2022/05/03 20:49:29;;;;;;;0.00;0.00;;;;;;;9.08;65.49;101901.69;10520121;28;20076;-82
2022/05/03 20:54:32;;;;;;;0.00;0.00;;;;;;;9.16;65.30;101907.19;10540007;28;20044;-82
2022/05/03 20:59:35;;;;;;;0.00;0.00;;;;;;;8.96;65.63;101908.81;10524503;28;20060;-82
2022/05/03 21:04:40;;;;;;;0.00;0.00;;;;;;;8.77;66.09;101923.31;10516596;28;20071;-82
2022/05/03 21:09:41;;;;;;;0.00;0.00;;;;;;;8.60;66.83;101924.19;10497754;28;20053;-82
2022/05/03 21:14:43;;;;;;;0.00;0.00;;;;;;;8.59;66.64;101927.56;10498149;28;20052;-82
2022/05/03 21:19:45;;;;;;;0.00;0.00;;;;;;;8.37;66.92;101935.00;10524433;28;20121;-81
2022/05/03 21:24:47;;;;;;;0.00;0.00;;;;;;;8.48;66.59;101930.44;10540841;28;20059;-82
2022/05/03 21:29:49;;;;;;;0.00;0.00;;;;;;;8.19;67.33;101932.34;10540693;28;20044;-82
2022/05/03 21:34:51;;;;;;;0.20;0.20;;;;;;;8.12;67.25;101930.28;10539247;28;20074;-82
2022/05/03 21:39:53;;;;;;;0.00;0.00;;;;;;;8.16;67.31;101926.19;10530864;28;20556;-81
2022/05/03 21:44:55;;;;;;;0.00;0.00;;;;;;;8.12;67.79;101932.84;10508289;28;20058;-81
2022/05/03 21:49:58;;;;;;;0.00;0.00;;;;;;;8.02;67.87;101939.19;10520375;28;20098;-81
2022/05/03 21:54:59;;;;;;;0.00;0.00;;;;;;;7.84;68.14;101944.22;10534408;28;20056;-81
2022/05/03 22:00:03;;;;;;;0.00;0.00;;;;;;;7.83;67.92;101951.81;10504267;28;20137;-81
2022/05/03 22:05:07;;;;;;;0.00;0.00;;;;;;;8.05;68.32;101943.59;10536857;28;20060;-82
2022/05/03 22:10:09;;;;;;;0.00;0.00;;;;;;;7.80;68.54;101949.97;10521589;28;20155;-81
2022/05/03 22:15:11;;;;;;;0.00;0.00;;;;;;;7.73;68.56;101945.31;10497068;28;20049;-81
2022/05/03 22:20:12;;;;;;;0.00;0.00;;;;;;;7.78;68.58;101949.03;10542462;28;20051;-81
2022/05/03 22:25:14;;;;;;;0.00;0.00;;;;;;;7.66;69.14;101951.81;10537074;28;20052;-81
2022/05/03 22:30:16;;;;;;;0.40;0.28;;;;;;;7.50;69.96;101947.50;10538282;28;20519;-81
2022/05/03 22:35:18;;;;;;;0.00;0.00;;;;;;;7.61;69.67;101956.69;10538228;28;20496;-81
2022/05/03 22:40:20;;;;;;;0.00;0.00;;;;;;;7.91;68.02;101955.69;10528071;28;20488;-81
2022/05/03 22:45:22;;;;;;;0.00;0.00;;;;;;;7.79;69.46;101958.47;10478076;28;20526;-81
2022/05/03 22:50:23;;;;;;;0.00;0.00;;;;;;;7.65;69.65;101956.81;10493632;28;20314;-82
2022/05/03 22:55:27;;;;;;;0.00;0.00;;;;;;;7.69;69.47;101962.22;10494783;28;20057;-81
2022/05/03 23:00:28;;;;;;;0.00;0.00;;;;;;;7.76;69.14;101955.75;10517099;28;20083;-81
2022/05/03 23:05:30;;;;;;;0.00;0.00;;;;;;;7.64;69.92;101945.69;10531971;28;20101;-81
2022/05/03 23:10:32;;;;;;;0.00;0.00;;;;;;;7.77;69.31;101952.38;10536421;28;20055;-81
2022/05/03 23:15:33;;;;;;;0.55;0.55;;;;;;;7.72;69.17;101949.56;10505183;28;20392;-81
2022/05/03 23:20:35;;;;;;;0.00;0.00;;;;;;;7.67;70.03;101947.53;10502533;28;20407;-81
2022/05/03 23:25:37;;;;;;;0.00;0.00;;;;;;;7.73;68.84;101942.75;10493289;28;20151;-81
2022/05/03 23:30:39;;;;;;;0.00;0.00;;;;;;;7.71;68.93;101942.66;10494150;28;20036;-83
2022/05/03 23:35:41;;;;;;;0.00;0.00;;;;;;;7.80;68.88;101942.28;10492479;28;20523;-82
2022/05/03 23:40:43;;;;;;;0.00;0.00;;;;;;;8.10;66.83;101939.56;10524321;28;20052;-81
2022/05/03 23:51:05;;;;;;;0.00;0.00;;;;;;;7.96;67.96;101933.72;10524778;28;20499;-82
2022/05/03 23:56:07;;;;;;;0.00;0.00;;;;;;;7.89;69.17;101932.50;10475469;28;20063;-82
